createdAt,value
2019-04-10T00:01:15.293Z,43.53
2019-04-10T00:03:46.237Z,39.67
2019-04-10T00:06:18.164Z,37.87
2019-04-10T00:08:48.614Z,37.40
2019-04-10T00:11:18.592Z,43.30
2019-04-10T00:13:49.058Z,40.77
2019-04-10T00:16:20.912Z,41.10
2019-04-10T00:18:51.317Z,40.47
2019-04-10T00:21:21.631Z,40.13
2019-04-10T00:23:51.359Z,42.83
2019-04-10T00:26:21.682Z,38.30
2019-04-10T00:28:51.905Z,44.03
2019-04-10T00:31:22.996Z,40.77
2019-04-10T00:33:53.755Z,44.13
2019-04-10T00:36:24.767Z,46.20
2019-04-10T00:38:55.910Z,46.43
2019-04-10T00:41:26.344Z,38.73
2019-04-10T00:43:57.355Z,43.77
2019-04-10T00:46:28.332Z,33.63
2019-04-10T00:48:58.774Z,40.60
2019-04-10T00:51:28.512Z,44.40
2019-04-10T00:53:59.348Z,42.37
2019-04-10T00:56:29.836Z,42.30
2019-04-10T00:58:59.665Z,39.80
2019-04-10T01:01:29.903Z,41.30
2019-04-10T01:04:00.304Z,39.93
2019-04-10T01:06:30.627Z,43.50
2019-04-10T01:09:01.363Z,46.40
2019-04-10T01:11:32.666Z,42.73
2019-04-10T01:14:02.582Z,37.17
2019-04-10T01:16:32.159Z,45.63
2019-04-10T01:19:01.911Z,36.07
2019-04-10T01:21:32.510Z,43.17
2019-04-10T01:24:03.609Z,39.10
2019-04-10T01:26:34.976Z,49.97
2019-04-10T01:29:05.385Z,41.10
2019-04-10T01:31:35.761Z,50.60
2019-04-10T01:34:07.313Z,44.37
2019-04-10T01:36:37.855Z,38.93
2019-04-10T01:39:10.498Z,46.97
2019-04-10T01:41:40.180Z,39.67
2019-04-10T01:44:11.122Z,41.70
2019-04-10T01:46:42.375Z,38.47
2019-04-10T01:49:13.495Z,38.43
2019-04-10T01:51:43.536Z,37.93
2019-04-10T01:54:13.890Z,45.20
2019-04-10T01:56:43.861Z,38.90
2019-04-10T01:59:14.754Z,46.90
2019-04-10T02:01:52.589Z,43.23
2019-04-10T02:04:22.776Z,44.80
2019-04-10T02:06:52.460Z,39.90
2019-04-10T02:09:23.428Z,37.67
2019-04-10T02:11:54.376Z,44.77
2019-04-10T02:14:24.532Z,39.87
2019-04-10T02:16:54.917Z,42.33
2019-04-10T02:19:24.608Z,46.53
2019-04-10T02:21:54.827Z,41.70
2019-04-10T02:24:25.269Z,45.47
2019-04-10T02:26:56.036Z,44.17
2019-04-10T02:29:26.482Z,41.90
2019-04-10T02:31:57.351Z,37.73
2019-04-10T02:34:28.315Z,44.23
2019-04-10T02:36:58.634Z,40.27
2019-04-10T02:39:36.194Z,43.57
2019-04-10T02:42:00.511Z,47.53
2019-04-10T02:44:31.143Z,42.43
2019-04-10T02:47:02.088Z,39.53
2019-04-10T02:49:32.761Z,43.53
2019-04-10T02:52:02.453Z,39.53
2019-04-10T02:54:33.572Z,40.87
2019-04-10T02:57:05.452Z,37.73
2019-04-10T02:59:37.331Z,37.87
2019-04-10T03:02:08.560Z,44.07
2019-04-10T03:04:40.368Z,33.50
2019-04-10T03:07:11.591Z,49.83
2019-04-10T03:09:56.285Z,40.73
2019-04-10T03:12:14.606Z,45.67
2019-04-10T03:14:47.493Z,42.67
2019-04-10T03:17:17.718Z,46.60
2019-04-10T03:19:47.380Z,41.80
2019-04-10T03:22:16.975Z,40.57
2019-04-10T03:24:47.209Z,39.87
2019-04-10T03:27:16.902Z,42.67
2019-04-10T03:29:47.135Z,42.43
2019-04-10T03:32:54.517Z,42.00
2019-04-10T03:35:32.722Z,37.83
2019-04-10T03:38:03.008Z,39.07
2019-04-10T03:40:33.438Z,39.70
2019-04-10T03:43:03.829Z,40.80
2019-04-10T03:45:34.560Z,40.97
2019-04-10T03:48:05.382Z,40.33
2019-04-10T03:50:36.215Z,43.73
2019-04-10T03:53:07.528Z,39.87
2019-04-10T03:55:37.987Z,36.27
2019-04-10T03:58:09.288Z,42.03
2019-04-10T04:00:40.430Z,35.93
2019-04-10T04:03:14.700Z,39.50
2019-04-10T04:05:45.063Z,42.67
2019-04-10T04:08:15.423Z,39.60
2019-04-10T04:10:45.813Z,42.00
2019-04-10T04:13:16.168Z,40.57
2019-04-10T04:15:48.434Z,43.00
2019-04-10T04:18:19.267Z,49.30
2019-04-10T04:20:50.898Z,38.57
2019-04-10T04:23:21.584Z,40.20
2019-04-10T04:25:52.103Z,36.17
2019-04-10T04:28:23.415Z,40.50
2019-04-10T04:30:53.859Z,37.53
2019-04-10T04:33:24.365Z,37.83
2019-04-10T04:35:55.128Z,32.93
2019-04-10T04:38:25.697Z,42.37
2019-04-10T04:40:56.074Z,39.83
2019-04-10T04:43:26.443Z,37.60
2019-04-10T04:45:56.163Z,35.57
2019-04-10T04:48:26.443Z,36.67
2019-04-10T04:50:56.805Z,39.77
2019-04-10T04:53:26.492Z,38.60
2019-04-10T04:55:57.554Z,37.40
2019-04-10T04:58:28.259Z,42.00
2019-04-10T05:00:58.736Z,37.10
2019-04-10T05:03:29.236Z,34.47
2019-04-10T05:06:00.377Z,41.70
2019-04-10T05:08:30.905Z,38.73
2019-04-10T05:11:02.195Z,39.10
2019-04-10T05:13:32.783Z,37.60
2019-04-10T05:16:03.151Z,40.53
2019-04-10T05:18:33.520Z,41.60
2019-04-10T05:21:05.091Z,40.93
2019-04-10T05:23:35.653Z,46.13
2019-04-10T05:26:06.160Z,43.27
2019-04-10T05:28:36.572Z,39.47
2019-04-10T05:31:06.766Z,45.93
2019-04-10T05:33:37.251Z,41.83
2019-04-10T05:36:07.684Z,41.67
2019-04-10T05:38:38.162Z,41.80
2019-04-10T05:41:09.141Z,44.80
2019-04-10T05:43:39.016Z,39.17
2019-04-10T05:46:09.263Z,39.00
2019-04-10T05:48:39.844Z,44.37
2019-04-10T05:51:10.453Z,34.67
2019-04-10T05:53:40.933Z,38.60
2019-04-10T05:56:10.614Z,37.63
2019-04-10T05:58:40.931Z,35.97
2019-04-10T06:01:11.534Z,32.17
2019-04-10T06:03:42.851Z,37.33
2019-04-10T06:06:14.462Z,31.57
2019-04-10T06:08:44.847Z,36.10
2019-04-10T06:11:15.222Z,35.03
2019-04-10T06:13:45.220Z,33.33
2019-04-10T06:16:15.467Z,29.43
2019-04-10T06:18:45.840Z,36.90
2019-04-10T06:21:16.271Z,25.13
2019-04-10T06:23:47.601Z,31.50
2019-04-10T06:26:17.548Z,27.90
2019-04-10T06:28:48.529Z,28.17
2019-04-10T06:31:18.691Z,32.50
2019-04-10T06:33:48.593Z,25.43
2019-04-10T06:36:19.502Z,33.27
2019-04-10T06:38:49.323Z,26.40
2019-04-10T06:41:19.253Z,30.90
2019-04-10T06:43:49.727Z,30.97
2019-04-10T06:46:20.168Z,29.03
2019-04-10T06:48:50.071Z,30.43
2019-04-10T06:51:21.690Z,25.57
2019-04-10T06:54:01.739Z,22.60
2019-04-10T06:56:23.552Z,21.73
2019-04-10T06:58:53.260Z,24.37
2019-04-10T07:01:24.509Z,23.87
2019-04-10T07:04:02.269Z,23.63
2019-04-10T07:06:44.624Z,18.63
2019-04-10T07:08:59.083Z,22.30
2019-04-10T07:11:32.156Z,20.00
2019-04-10T07:14:01.587Z,30.70
2019-04-10T07:16:34.022Z,23.37
2019-04-10T07:19:06.948Z,26.33
2019-04-10T07:21:37.605Z,22.23
2019-04-10T07:24:10.887Z,25.83
2019-04-10T07:26:43.159Z,25.23
2019-04-10T07:29:15.584Z,25.27
2019-04-10T07:31:42.635Z,27.60
2019-04-10T07:34:13.044Z,31.03
2019-04-10T07:36:44.909Z,25.63
2019-04-10T07:39:15.323Z,27.37
2019-04-10T07:41:45.656Z,25.97
2019-04-10T07:44:15.323Z,26.33
2019-04-10T07:46:44.915Z,29.47
2019-04-10T07:49:17.665Z,24.30
2019-04-10T07:51:48.483Z,21.93
2019-04-10T07:54:21.260Z,23.87
2019-04-10T07:56:51.254Z,17.73
2019-04-10T07:59:21.726Z,22.90
2019-04-10T08:01:52.128Z,27.53
2019-04-10T08:04:22.620Z,20.87
2019-04-10T08:06:54.319Z,22.83
2019-04-10T08:09:24.768Z,30.20
2019-04-10T08:11:54.506Z,21.23
2019-04-10T08:14:24.077Z,22.27
2019-04-10T08:16:55.309Z,23.00
2019-04-10T08:19:26.414Z,19.13
2019-04-10T08:21:57.000Z,19.90
2019-04-10T08:24:26.675Z,20.37
2019-04-10T08:26:57.034Z,20.70
2019-04-10T08:29:26.702Z,27.80
2019-04-10T08:31:56.955Z,20.17
2019-04-10T08:34:28.100Z,22.83
2019-04-10T08:36:57.896Z,24.73
2019-04-10T08:39:36.052Z,21.73
2019-04-10T08:41:58.711Z,21.97
2019-04-10T08:44:29.866Z,18.57
2019-04-10T08:47:00.191Z,19.00
2019-04-10T08:49:30.477Z,16.83
2019-04-10T08:52:01.360Z,18.63
2019-04-10T08:54:32.147Z,26.80
2019-04-10T08:57:03.278Z,25.63
2019-04-10T08:59:33.991Z,24.57
2019-04-10T09:02:04.239Z,18.10
2019-04-10T09:04:34.566Z,23.17
2019-04-10T09:07:05.696Z,22.90
2019-04-10T09:09:39.458Z,17.93
2019-04-10T09:12:09.400Z,16.47
2019-04-10T09:14:39.662Z,21.10
2019-04-10T09:17:11.104Z,25.23
2019-04-10T09:19:42.300Z,20.53
2019-04-10T09:22:12.099Z,20.27
2019-04-10T09:24:42.485Z,19.30
2019-04-10T09:27:13.082Z,18.27
2019-04-10T09:29:44.430Z,24.20
2019-04-10T09:32:14.771Z,18.27
2019-04-10T09:34:46.441Z,20.67
2019-04-10T09:37:15.742Z,20.13
2019-04-10T09:39:45.496Z,17.37
2019-04-10T09:42:15.779Z,17.57
2019-04-10T09:44:46.565Z,24.10
2019-04-10T09:47:16.468Z,21.40
2019-04-10T09:49:47.197Z,24.17
2019-04-10T09:52:18.710Z,19.83
2019-04-10T09:54:49.531Z,17.97
2019-04-10T09:57:20.139Z,21.03
2019-04-10T09:59:50.077Z,20.87
2019-04-10T10:02:19.801Z,17.73
2019-04-10T10:04:50.437Z,31.13
2019-04-10T10:07:20.867Z,18.17
2019-04-10T10:09:51.448Z,19.87
2019-04-10T10:12:21.931Z,18.87
2019-04-10T10:14:51.937Z,21.23
2019-04-10T10:17:22.444Z,20.77
2019-04-10T10:19:53.844Z,23.23
2019-04-10T10:22:23.708Z,18.97
2019-04-10T10:24:55.066Z,16.97
2019-04-10T10:27:26.800Z,18.37
2019-04-10T10:29:57.838Z,17.53
2019-04-10T10:32:28.934Z,16.97
2019-04-10T10:35:01.048Z,17.50
2019-04-10T10:37:31.232Z,18.23
2019-04-10T10:40:01.341Z,19.23
2019-04-10T10:42:31.905Z,16.33
2019-04-10T10:45:02.795Z,17.23
2019-04-10T10:47:33.268Z,21.60
2019-04-10T10:50:03.071Z,20.07
2019-04-10T10:52:33.363Z,17.23
2019-04-10T10:55:05.144Z,16.73
2019-04-10T10:57:37.588Z,15.60
2019-04-10T11:00:08.338Z,13.07
2019-04-10T11:02:39.452Z,17.93
2019-04-10T11:05:10.715Z,23.70
2019-04-10T11:07:40.615Z,20.83
2019-04-10T11:10:12.469Z,20.23
2019-04-10T11:12:42.470Z,21.70
2019-04-10T11:15:13.674Z,19.53
2019-04-10T11:17:44.708Z,18.43
2019-04-10T11:20:15.261Z,16.67
2019-04-10T11:22:44.986Z,16.63
2019-04-10T11:25:15.703Z,18.43
2019-04-10T11:27:45.498Z,14.70
2019-04-10T11:30:16.177Z,15.03
2019-04-10T11:32:46.290Z,14.33
2019-04-10T11:35:17.428Z,14.77
2019-04-10T11:37:50.016Z,17.33
2019-04-10T11:40:21.089Z,15.93
2019-04-10T11:42:51.493Z,15.07
2019-04-10T11:45:26.142Z,18.03
2019-04-10T11:47:56.482Z,16.90
2019-04-10T11:50:28.110Z,14.73
2019-04-10T11:53:00.359Z,15.30
2019-04-10T11:55:29.747Z,14.27
2019-04-10T11:58:00.060Z,13.60
2019-04-10T12:00:47.597Z,12.00
2019-04-10T12:03:12.747Z,14.73
2019-04-10T12:05:42.771Z,13.87
2019-04-10T12:08:42.183Z,17.83
2019-04-10T12:13:17.967Z,16.90
2019-04-10T12:15:48.493Z,15.67
2019-04-10T12:18:18.356Z,17.80
2019-04-10T12:20:51.458Z,17.13
2019-04-10T12:23:23.029Z,13.20
2019-04-10T12:25:53.593Z,11.53
2019-04-10T12:28:25.594Z,12.17
2019-04-10T12:30:55.474Z,14.40
2019-04-10T12:33:25.440Z,16.10
2019-04-10T12:35:55.983Z,14.27
2019-04-10T12:38:27.636Z,10.23
2019-04-10T12:40:59.023Z,14.97
2019-04-10T12:43:29.534Z,16.93
2019-04-10T12:46:00.257Z,11.77
2019-04-10T12:48:31.550Z,11.73
2019-04-10T12:51:02.018Z,15.43
2019-04-10T12:53:31.809Z,14.73
2019-04-10T12:56:02.183Z,16.17
2019-04-10T12:58:32.910Z,16.17
2019-04-10T13:01:03.010Z,17.73
2019-04-10T13:03:33.410Z,13.73
2019-04-10T13:06:03.155Z,15.20
2019-04-10T13:08:51.477Z,9.13
2019-04-10T13:11:04.681Z,15.83
2019-04-10T13:13:35.824Z,12.25
2019-04-10T13:16:09.821Z,11.33
2019-04-10T13:18:40.696Z,12.60
2019-04-10T13:21:10.466Z,12.80
2019-04-10T13:23:41.186Z,12.80
2019-04-10T13:26:10.940Z,10.33
2019-04-10T13:28:41.518Z,11.03
2019-04-10T13:31:11.194Z,12.93
2019-04-10T13:33:40.773Z,9.90
2019-04-10T13:36:11.383Z,11.60
2019-04-10T13:38:42.170Z,15.57
2019-04-10T13:41:12.296Z,13.13
2019-04-10T13:43:42.288Z,9.40
2019-04-10T13:46:12.969Z,8.63
2019-04-10T13:48:42.807Z,12.20
2019-04-10T13:51:14.963Z,8.13
2019-04-10T13:53:46.027Z,11.63
2019-04-10T13:56:16.991Z,10.10
2019-04-10T13:58:47.471Z,10.33
2019-04-10T14:01:27.842Z,10.73
2019-04-10T14:03:58.710Z,8.33
2019-04-10T14:06:29.705Z,8.18
2019-04-10T14:09:17.832Z,9.83
2019-04-10T14:11:31.806Z,13.90
2019-04-10T14:14:02.429Z,10.40
2019-04-10T14:16:32.844Z,9.17
2019-04-10T14:19:03.410Z,12.40
2019-04-10T14:21:33.748Z,6.63
2019-04-10T14:24:05.229Z,7.63
2019-04-10T14:26:48.991Z,10.47
2019-04-10T14:29:16.924Z,10.73
2019-04-10T14:31:54.660Z,5.50
2019-04-10T14:34:26.105Z,9.23
2019-04-10T14:36:56.906Z,8.03
2019-04-10T14:39:27.226Z,6.40
2019-04-10T14:41:56.872Z,9.27
2019-04-10T14:44:28.428Z,8.53
2019-04-10T14:46:58.277Z,6.43
2019-04-10T14:49:29.293Z,8.30
2019-04-10T14:51:59.181Z,7.47
2019-04-10T14:54:30.095Z,6.43
2019-04-10T14:57:00.643Z,8.93
2019-04-10T14:59:30.312Z,8.33
2019-04-10T15:02:00.098Z,12.20
2019-04-10T15:04:30.604Z,14.40
2019-04-10T15:07:00.478Z,8.10
2019-04-10T15:09:30.722Z,9.13
2019-04-10T15:12:01.127Z,7.60
2019-04-10T15:14:33.648Z,11.63
2019-04-10T15:17:05.967Z,10.50
2019-04-10T15:19:34.440Z,9.97
2019-04-10T15:22:07.397Z,6.93
2019-04-10T15:24:37.286Z,7.93
2019-04-10T15:27:07.581Z,8.00
2019-04-10T15:29:38.612Z,7.47
2019-04-10T15:32:08.770Z,11.17
2019-04-10T15:34:39.603Z,9.10
2019-04-10T15:37:11.024Z,10.03
2019-04-10T15:39:43.156Z,8.43
2019-04-10T15:42:14.241Z,5.50
2019-04-10T15:44:46.568Z,7.47
2019-04-10T15:47:20.796Z,8.60
2019-04-10T15:49:47.510Z,9.10
2019-04-10T15:52:17.959Z,7.03
2019-04-10T15:54:47.911Z,5.93
2019-04-10T15:57:18.496Z,10.50
2019-04-10T15:59:48.370Z,6.63
2019-04-10T16:02:19.575Z,6.80
2019-04-10T16:04:49.386Z,11.17
2019-04-10T16:07:22.527Z,9.43
2019-04-10T16:09:56.294Z,7.10
2019-04-10T16:12:27.340Z,6.67
2019-04-10T16:14:58.136Z,7.80
2019-04-10T16:17:52.819Z,8.10
2019-04-10T16:20:30.377Z,6.10
2019-04-10T16:23:21.920Z,9.37
2019-04-10T16:25:54.481Z,8.17
2019-04-10T16:28:24.387Z,9.97
2019-04-10T16:30:55.112Z,9.43
2019-04-10T16:33:25.422Z,7.17
2019-04-10T16:35:56.880Z,9.17
2019-04-10T16:38:26.886Z,8.23
2019-04-10T16:40:58.173Z,7.50
2019-04-10T16:43:28.835Z,9.17
2019-04-10T16:45:59.456Z,6.40
2019-04-10T16:48:29.852Z,7.27
2019-04-10T16:50:59.743Z,9.30
2019-04-10T16:53:29.951Z,7.17
2019-04-10T16:55:59.710Z,10.80
2019-04-10T16:58:29.980Z,12.47
2019-04-10T17:00:59.775Z,9.87
2019-04-10T17:03:30.113Z,7.83
2019-04-10T17:06:02.456Z,7.67
2019-04-10T17:08:32.220Z,10.35
2019-04-10T17:11:03.359Z,6.90
2019-04-10T17:13:33.180Z,12.03
2019-04-10T17:16:02.807Z,4.50
2019-04-10T17:18:33.172Z,14.53
2019-04-10T17:21:02.972Z,10.57
2019-04-10T17:23:32.707Z,7.10
2019-04-10T17:26:02.479Z,6.03
2019-04-10T17:28:34.443Z,10.33
2019-04-10T17:31:07.830Z,7.63
2019-04-10T17:33:39.629Z,10.13
2019-04-10T17:36:09.796Z,13.40
2019-04-10T17:38:40.509Z,11.70
2019-04-10T17:41:11.235Z,8.47
2019-04-10T17:43:41.837Z,8.37
2019-04-10T17:46:11.594Z,8.87
2019-04-10T17:48:42.114Z,11.75
2019-04-10T17:51:14.090Z,8.13
2019-04-10T17:53:45.382Z,8.90
2019-04-10T17:56:16.384Z,14.27
2019-04-10T17:58:46.079Z,11.53
2019-04-10T18:01:19.471Z,6.73
2019-04-10T18:03:54.826Z,10.20
2019-04-10T18:06:21.466Z,12.30
2019-04-10T18:08:51.827Z,9.27
2019-04-10T18:11:22.396Z,12.40
2019-04-10T18:13:53.053Z,9.57
2019-04-10T18:16:22.814Z,12.43
2019-04-10T18:18:53.852Z,12.27
2019-04-10T18:21:24.576Z,11.47
2019-04-10T18:23:55.782Z,8.43
2019-04-10T18:26:27.740Z,8.77
2019-04-10T18:28:59.450Z,6.80
2019-04-10T18:31:29.707Z,9.17
2019-04-10T18:33:59.356Z,8.70
2019-04-10T18:36:29.886Z,15.60
2019-04-10T18:38:59.711Z,10.67
2019-04-10T18:41:30.024Z,9.90
2019-04-10T18:44:00.503Z,15.23
2019-04-10T18:46:31.218Z,9.47
2019-04-10T18:49:01.712Z,12.30
2019-04-10T18:51:32.227Z,11.13
2019-04-10T18:54:03.826Z,12.47
2019-04-10T18:56:33.627Z,10.27
2019-04-10T18:59:18.960Z,10.80
2019-04-10T19:02:07.599Z,11.20
2019-04-10T19:04:59.596Z,10.60
2019-04-10T19:07:32.308Z,9.20
2019-04-10T19:10:02.635Z,9.20
2019-04-10T19:12:34.814Z,9.13
2019-04-10T19:15:06.546Z,14.07
2019-04-10T19:17:37.142Z,11.30
2019-04-10T19:20:07.710Z,10.67
2019-04-10T19:22:38.871Z,11.77
2019-04-10T19:25:08.876Z,12.97
2019-04-10T19:27:40.145Z,11.27
2019-04-10T19:30:35.397Z,13.13
2019-04-10T19:33:07.887Z,7.93
2019-04-10T19:35:37.691Z,6.17
2019-04-10T19:38:07.425Z,8.47
2019-04-10T19:40:38.684Z,9.97
2019-04-10T19:43:08.445Z,9.77
2019-04-10T19:45:38.066Z,12.77
2019-04-10T19:48:08.933Z,8.97
2019-04-10T19:50:38.587Z,6.43
2019-04-10T19:53:09.047Z,13.90
2019-04-10T19:55:39.985Z,8.60
2019-04-10T19:58:10.764Z,9.17
2019-04-10T20:00:40.973Z,7.43
2019-04-10T20:03:11.185Z,7.43
2019-04-10T20:05:41.497Z,10.47
2019-04-10T20:08:13.106Z,7.70
2019-04-10T20:10:43.724Z,11.60
2019-04-10T20:13:14.460Z,11.93
2019-04-10T20:15:44.992Z,6.60
2019-04-10T20:18:15.315Z,12.37
2019-04-10T20:20:45.730Z,11.83
2019-04-10T20:23:16.165Z,23.23
2019-04-10T20:25:46.350Z,11.57
2019-04-10T20:28:16.686Z,11.07
2019-04-10T20:30:46.358Z,8.67
2019-04-10T20:33:16.651Z,8.90
2019-04-10T20:35:46.709Z,7.43
2019-04-10T20:38:17.549Z,9.20
2019-04-10T20:40:47.263Z,10.17
2019-04-10T20:43:16.930Z,9.60
2019-04-10T20:45:47.519Z,14.90
2019-04-10T20:48:17.263Z,9.20
2019-04-10T20:50:48.051Z,13.00
2019-04-10T20:53:17.958Z,11.27
2019-04-10T20:55:48.196Z,10.20
2019-04-10T20:58:20.164Z,8.77
2019-04-10T21:00:51.416Z,12.00
2019-04-10T21:03:22.923Z,8.30
2019-04-10T21:05:52.865Z,7.70
2019-04-10T21:08:22.390Z,13.27
2019-04-10T21:10:52.004Z,8.73
2019-04-10T21:13:22.086Z,10.00
2019-04-10T21:15:53.018Z,20.67
2019-04-10T21:18:23.640Z,10.73
2019-04-10T21:20:53.985Z,11.30
2019-04-10T21:23:23.879Z,12.70
2019-04-10T21:25:55.293Z,11.57
2019-04-10T21:28:25.974Z,11.83
2019-04-10T21:31:05.447Z,9.50
2019-04-10T21:34:01.274Z,8.23
2019-04-10T21:36:31.555Z,9.40
2019-04-10T21:39:01.345Z,16.73
2019-04-10T21:41:31.154Z,9.73
2019-04-10T21:44:02.295Z,12.83
2019-04-10T21:46:32.866Z,8.10
2019-04-10T21:49:03.642Z,8.97
2019-04-10T21:51:34.922Z,12.77
2019-04-10T21:54:06.386Z,7.20
2019-04-10T21:56:37.311Z,14.93
2019-04-10T21:59:08.965Z,9.23
2019-04-10T22:01:40.263Z,12.53
2019-04-10T22:04:10.809Z,9.10
2019-04-10T22:06:51.537Z,5.90
2019-04-10T22:09:39.633Z,7.87
2019-04-10T22:12:25.929Z,8.93
2019-04-10T22:14:53.123Z,10.00
2019-04-10T22:17:22.875Z,7.83
2019-04-10T22:19:54.932Z,9.17
2019-04-10T22:22:26.596Z,11.53
2019-04-10T22:24:56.944Z,7.10
2019-04-10T22:27:27.522Z,13.87
2019-04-10T22:29:58.440Z,8.97
2019-04-10T22:32:29.103Z,9.80
2019-04-10T22:35:01.442Z,8.97
2019-04-10T22:37:31.908Z,6.70
2019-04-10T22:40:02.382Z,16.70
2019-04-10T22:42:40.054Z,14.43
2019-04-10T22:45:06.708Z,11.80
2019-04-10T22:47:37.072Z,14.63
2019-04-10T22:50:08.583Z,11.83
2019-04-10T22:52:38.444Z,9.63
2019-04-10T22:55:09.503Z,6.33
2019-04-10T22:57:40.923Z,11.53
2019-04-10T23:00:13.870Z,11.73
2019-04-10T23:02:47.127Z,9.70
2019-04-10T23:05:18.374Z,11.00
2019-04-10T23:07:49.224Z,13.33
2019-04-10T23:10:19.734Z,11.07
2019-04-10T23:12:58.916Z,8.90
2019-04-10T23:15:23.063Z,11.70
2019-04-10T23:17:53.513Z,13.90
2019-04-10T23:20:25.892Z,12.70
2019-04-10T23:22:56.745Z,12.80
2019-04-10T23:25:27.229Z,12.03
2019-04-10T23:27:58.793Z,10.33
2019-04-10T23:30:29.421Z,16.23
2019-04-10T23:32:59.652Z,21.27
2019-04-10T23:35:29.563Z,10.30
2019-04-10T23:38:00.099Z,14.40
2019-04-10T23:40:30.544Z,10.80
2019-04-10T23:43:07.545Z,12.83
2019-04-10T23:45:31.631Z,11.63
2019-04-10T23:48:01.947Z,20.27
2019-04-10T23:50:36.432Z,10.70
2019-04-10T23:53:07.163Z,12.97
2019-04-10T23:55:37.837Z,11.83
2019-04-10T23:58:09.402Z,9.37
